createdAt,value
2022-11-28T00:01:44.955Z,0.52
2022-11-28T00:04:13.690Z,0.64
2022-11-28T00:06:49.062Z,0.56
2022-11-28T00:09:19.403Z,0.59
2022-11-28T00:11:48.702Z,0.82
2022-11-28T00:14:18.140Z,0.56
2022-11-28T00:16:46.301Z,0.82
2022-11-28T00:19:15.233Z,0.93
2022-11-28T00:21:43.509Z,0.75
2022-11-28T00:24:11.380Z,0.65
2022-11-28T00:26:41.866Z,0.71
2022-11-28T00:29:11.820Z,0.69
2022-11-28T00:31:43.767Z,0.72
2022-11-28T00:34:13.559Z,0.74
2022-11-28T00:36:41.795Z,0.80
2022-11-28T00:39:09.566Z,0.75
2022-11-28T00:41:37.282Z,0.73
2022-11-28T00:44:04.928Z,0.78
2022-11-28T00:46:32.648Z,0.80
2022-11-28T00:49:00.636Z,0.92
2022-11-28T00:51:33.038Z,0.84
2022-11-28T00:54:02.909Z,0.97
2022-11-28T00:56:33.988Z,0.93
2022-11-28T00:59:02.150Z,0.86
2022-11-28T01:01:42.395Z,0.89
2022-11-28T01:04:12.837Z,0.80
2022-11-28T01:06:44.451Z,0.80
2022-11-28T01:09:14.960Z,0.88
2022-11-28T01:11:44.926Z,0.78
2022-11-28T01:14:14.446Z,0.75
2022-11-28T01:16:42.236Z,0.69
2022-11-28T01:19:10.024Z,0.75
2022-11-28T01:21:37.764Z,0.79
2022-11-28T01:24:05.802Z,0.68
2022-11-28T01:26:33.572Z,0.77
2022-11-28T01:29:02.064Z,0.82
2022-11-28T01:31:31.462Z,0.81
2022-11-28T01:33:59.472Z,0.77
2022-11-28T01:36:28.008Z,0.86
2022-11-28T01:38:55.901Z,0.85
2022-11-28T01:41:26.442Z,0.93
2022-11-28T01:44:01.262Z,0.94
2022-11-28T01:46:30.094Z,0.95
2022-11-28T01:49:04.558Z,0.71
2022-11-28T01:51:32.905Z,0.90
2022-11-28T01:54:01.505Z,0.76
2022-11-28T01:56:35.975Z,0.88
2022-11-28T01:59:08.617Z,0.96
2022-11-28T02:01:36.467Z,0.94
2022-11-28T02:04:04.869Z,0.99
2022-11-28T02:06:34.289Z,1.15
2022-11-28T02:09:02.028Z,1.12
2022-11-28T02:11:51.509Z,1.02
2022-11-28T02:14:22.195Z,1.07
2022-11-28T02:17:13.669Z,1.01
2022-11-28T02:19:59.475Z,1.10
2022-11-28T02:22:42.526Z,1.09
2022-11-28T02:25:32.133Z,1.24
2022-11-28T02:28:41.030Z,1.16
2022-11-28T02:31:08.766Z,1.23
2022-11-28T02:33:58.480Z,1.16
2022-11-28T02:36:38.539Z,1.19
2022-11-28T02:39:22.613Z,1.23
2022-11-28T02:42:04.722Z,1.23
2022-11-28T02:44:40.580Z,1.14
2022-11-28T02:47:16.643Z,1.17
2022-11-28T02:50:06.367Z,1.34
2022-11-28T02:52:47.774Z,1.28
2022-11-28T02:55:18.033Z,1.32
2022-11-28T02:57:51.266Z,1.12
2022-11-28T03:00:39.566Z,1.24
2022-11-28T03:03:16.648Z,1.34
2022-11-28T03:05:52.572Z,1.24
2022-11-28T03:08:43.532Z,1.16
2022-11-28T03:11:24.328Z,1.41
2022-11-28T03:13:59.675Z,1.46
2022-11-28T03:16:37.425Z,1.32
2022-11-28T03:19:38.767Z,1.33
2022-11-28T03:22:31.571Z,1.45
2022-11-28T03:25:10.082Z,1.59
2022-11-28T03:27:46.301Z,1.39
2022-11-28T03:30:29.362Z,1.52
2022-11-28T03:32:59.136Z,1.45
2022-11-28T03:35:32.173Z,1.43
2022-11-28T03:38:06.992Z,1.26
2022-11-28T03:40:42.177Z,1.56
2022-11-28T03:43:13.788Z,1.57
2022-11-28T03:45:55.246Z,1.51
2022-11-28T03:48:28.616Z,1.63
2022-11-28T03:51:15.698Z,1.47
2022-11-28T03:53:55.124Z,1.48
2022-11-28T03:57:03.968Z,1.50
2022-11-28T04:00:07.357Z,1.48
2022-11-28T04:03:07.125Z,1.45
2022-11-28T04:05:53.959Z,1.53
2022-11-28T04:08:41.107Z,1.55
2022-11-28T04:11:17.037Z,1.70
2022-11-28T04:14:13.634Z,1.75
2022-11-28T04:16:50.554Z,1.69
2022-11-28T04:19:28.600Z,1.66
2022-11-28T04:22:04.082Z,1.56
2022-11-28T04:24:42.738Z,1.63
2022-11-28T04:27:18.926Z,1.67
2022-11-28T04:29:55.607Z,1.63
2022-11-28T04:32:26.324Z,1.70
2022-11-28T04:34:58.086Z,1.81
2022-11-28T04:37:28.600Z,1.79
2022-11-28T04:39:57.905Z,1.78
2022-11-28T04:42:36.473Z,1.70
2022-11-28T04:45:30.238Z,1.63
2022-11-28T04:47:58.593Z,1.64
2022-11-28T04:50:32.338Z,1.65
2022-11-28T04:53:07.343Z,1.55
2022-11-28T04:55:56.600Z,1.64
2022-11-28T04:58:34.669Z,1.53
2022-11-28T05:01:06.098Z,1.48
2022-11-28T05:03:35.948Z,1.52
2022-11-28T05:06:07.510Z,1.53
2022-11-28T05:08:35.182Z,1.45
2022-11-28T05:11:02.998Z,1.43
2022-11-28T05:13:30.661Z,1.37
2022-11-28T05:16:01.581Z,1.49
2022-11-28T05:18:29.326Z,1.66
2022-11-28T05:21:00.208Z,1.69
2022-11-28T05:23:27.886Z,1.77
2022-11-28T05:25:55.617Z,1.76
2022-11-28T05:28:23.333Z,1.84
2022-11-28T05:31:01.548Z,1.86
2022-11-28T05:33:33.677Z,1.53
2022-11-28T05:36:12.972Z,1.56
2022-11-28T05:38:41.381Z,1.51
2022-11-28T05:41:09.767Z,1.42
2022-11-28T05:43:37.978Z,1.66
2022-11-28T05:46:06.858Z,1.70
2022-11-28T05:48:34.584Z,1.64
2022-11-28T05:51:05.664Z,1.60
2022-11-28T05:53:33.484Z,1.64
2022-11-28T05:56:06.819Z,1.79
2022-11-28T05:58:34.613Z,1.83
2022-11-28T06:01:10.853Z,1.71
2022-11-28T06:03:38.726Z,1.71
2022-11-28T06:06:12.095Z,1.77
2022-11-28T06:08:39.832Z,1.66
2022-11-28T06:11:07.946Z,1.80
2022-11-28T06:13:36.069Z,1.83
2022-11-28T06:16:03.783Z,1.61
2022-11-28T06:18:31.429Z,1.59
2022-11-28T06:21:03.066Z,1.72
2022-11-28T06:23:30.814Z,1.86
2022-11-28T06:25:58.701Z,1.86
2022-11-28T06:28:26.412Z,1.89
2022-11-28T06:30:54.052Z,1.93
2022-11-28T06:33:21.775Z,1.81
2022-11-28T06:35:49.449Z,1.82
2022-11-28T06:38:17.149Z,1.99
2022-11-28T06:40:44.921Z,2.03
2022-11-28T06:43:12.611Z,1.86
2022-11-28T06:45:40.399Z,1.78
2022-11-28T06:48:08.126Z,1.71
2022-11-28T06:50:35.853Z,1.91
2022-11-28T06:53:03.538Z,1.95
2022-11-28T06:55:31.458Z,2.00
2022-11-28T06:57:59.162Z,1.83
2022-11-28T07:00:27.469Z,1.96
2022-11-28T07:02:55.358Z,1.89
2022-11-28T07:05:25.819Z,1.97
2022-11-28T07:07:54.609Z,2.08
2022-11-28T07:10:23.201Z,2.08
2022-11-28T07:13:02.370Z,2.00
2022-11-28T07:15:32.853Z,2.01
2022-11-28T07:18:00.952Z,2.08
2022-11-28T07:20:28.690Z,1.67
2022-11-28T07:22:56.424Z,2.18
2022-11-28T07:25:24.125Z,2.24
2022-11-28T07:27:51.770Z,2.12
2022-11-28T07:30:20.118Z,2.17
2022-11-28T07:32:47.830Z,2.15
2022-11-28T07:35:15.594Z,2.20
2022-11-28T07:37:43.282Z,2.21
2022-11-28T07:40:13.441Z,2.32
2022-11-28T07:42:41.196Z,2.17
2022-11-28T07:45:10.680Z,2.40
2022-11-28T07:47:38.374Z,2.51
2022-11-28T07:50:07.074Z,2.49
2022-11-28T07:52:34.743Z,2.43
2022-11-28T07:55:02.412Z,2.43
2022-11-28T07:57:30.656Z,2.44
2022-11-28T07:59:58.378Z,2.46
2022-11-28T08:02:27.243Z,2.37
2022-11-28T08:04:56.171Z,2.24
2022-11-28T08:07:23.998Z,2.30
2022-11-28T08:09:51.792Z,2.33
2022-11-28T08:12:19.501Z,2.51
2022-11-28T08:14:47.351Z,2.59
2022-11-28T08:17:15.013Z,2.71
2022-11-28T08:19:42.748Z,2.72
2022-11-28T08:22:10.457Z,2.35
2022-11-28T08:24:38.275Z,2.65
2022-11-28T08:27:05.932Z,2.74
2022-11-28T08:29:33.630Z,2.59
2022-11-28T08:32:01.418Z,2.84
2022-11-28T08:34:29.129Z,2.94
2022-11-28T08:36:56.799Z,3.01
2022-11-28T08:39:25.339Z,2.83
2022-11-28T08:41:57.173Z,2.87
2022-11-28T08:44:25.027Z,2.78
2022-11-28T08:46:52.978Z,2.73
2022-11-28T08:49:21.484Z,2.84
2022-11-28T08:51:49.174Z,2.99
2022-11-28T08:54:16.896Z,2.93
2022-11-28T08:56:45.269Z,2.97
2022-11-28T08:59:12.957Z,3.01
2022-11-28T09:01:40.722Z,3.07
2022-11-28T09:04:08.979Z,3.07
2022-11-28T09:06:40.253Z,3.01
2022-11-28T09:09:09.234Z,3.32
2022-11-28T09:11:37.185Z,3.46
2022-11-28T09:14:05.063Z,3.45
2022-11-28T09:16:32.960Z,3.30
2022-11-28T09:19:01.139Z,3.14
2022-11-28T09:21:28.798Z,3.24
2022-11-28T09:23:57.386Z,3.31
2022-11-28T09:26:26.401Z,3.44
2022-11-28T09:28:54.698Z,3.44
2022-11-28T09:31:23.070Z,3.50
2022-11-28T09:33:50.883Z,3.55
2022-11-28T09:36:21.467Z,3.57
2022-11-28T09:38:49.762Z,3.80
2022-11-28T09:41:26.214Z,3.62
2022-11-28T09:43:56.821Z,3.84
2022-11-28T09:46:35.405Z,3.90
2022-11-28T09:49:10.482Z,3.79
2022-11-28T09:51:57.945Z,3.67
2022-11-28T09:54:40.941Z,3.80
2022-11-28T09:57:22.712Z,4.15
2022-11-28T09:59:50.486Z,4.12
2022-11-28T10:02:38.852Z,4.31
2022-11-28T10:05:27.532Z,4.32
2022-11-28T10:08:37.120Z,4.11
2022-11-28T10:11:42.386Z,4.40
2022-11-28T10:14:32.172Z,4.42
2022-11-28T10:17:25.939Z,4.33
2022-11-28T10:20:12.234Z,4.29
2022-11-28T10:23:07.725Z,4.48
2022-11-28T10:25:41.650Z,4.52
2022-11-28T10:28:17.707Z,4.36
2022-11-28T10:30:52.435Z,4.46
2022-11-28T10:33:30.153Z,4.65
2022-11-28T10:36:00.724Z,4.66
2022-11-28T10:38:30.169Z,4.61
2022-11-28T10:41:19.542Z,4.57
2022-11-28T10:44:05.843Z,4.57
2022-11-28T10:46:51.331Z,4.39
2022-11-28T10:49:32.019Z,4.23
2022-11-28T10:52:15.047Z,4.43
2022-11-28T10:55:27.975Z,4.60
2022-11-28T10:58:08.019Z,4.45
2022-11-28T11:00:37.390Z,4.55
2022-11-28T11:03:06.492Z,4.45
2022-11-28T11:05:36.824Z,4.75
2022-11-28T11:08:30.856Z,4.81
2022-11-28T11:11:17.268Z,4.77
2022-11-28T11:14:06.759Z,4.81
2022-11-28T11:16:59.212Z,4.90
2022-11-28T11:19:36.771Z,5.08
2022-11-28T11:22:23.889Z,5.34
2022-11-28T11:25:07.022Z,5.46
2022-11-28T11:27:37.700Z,5.68
2022-11-28T11:30:34.765Z,6.30
2022-11-28T11:33:04.917Z,6.69
2022-11-28T11:35:36.882Z,6.63
2022-11-28T11:38:16.772Z,6.60
2022-11-28T11:40:44.577Z,6.40
2022-11-28T11:43:31.275Z,6.31
2022-11-28T11:46:13.645Z,6.17
2022-11-28T11:48:43.514Z,6.08
2022-11-28T11:51:27.537Z,6.16
2022-11-28T11:54:24.712Z,6.22
2022-11-28T11:57:05.817Z,6.40
2022-11-28T11:59:50.738Z,6.42
2022-11-28T12:02:29.575Z,6.44
2022-11-28T12:05:11.302Z,6.35
2022-11-28T12:07:39.087Z,6.34
2022-11-28T12:10:14.304Z,6.55
2022-11-28T12:12:42.398Z,6.48
2022-11-28T12:15:41.712Z,6.21
2022-11-28T12:18:27.688Z,6.23
2022-11-28T12:21:14.412Z,6.40
2022-11-28T12:23:57.533Z,6.51
2022-11-28T12:26:47.250Z,6.34
2022-11-28T12:30:09.154Z,6.49
2022-11-28T12:33:01.884Z,6.55
2022-11-28T12:35:40.402Z,6.53
2022-11-28T12:38:24.595Z,6.49
2022-11-28T12:41:18.752Z,6.43
2022-11-28T12:44:04.634Z,6.23
2022-11-28T12:46:47.982Z,6.38
2022-11-28T12:49:24.884Z,6.36
2022-11-28T12:52:16.966Z,6.48
2022-11-28T12:54:59.935Z,6.25
2022-11-28T12:58:13.235Z,6.47
2022-11-28T13:01:12.132Z,6.41
2022-11-28T13:04:03.029Z,6.51
2022-11-28T13:07:01.438Z,6.54
2022-11-28T13:09:33.871Z,6.19
2022-11-28T13:12:29.500Z,6.27
2022-11-28T13:15:00.745Z,6.36
2022-11-28T13:17:44.588Z,6.38
2022-11-28T13:20:21.170Z,6.26
2022-11-28T13:23:06.885Z,6.00
2022-11-28T13:25:56.654Z,6.18
2022-11-28T13:28:30.287Z,6.18
2022-11-28T13:31:08.787Z,6.18
2022-11-28T13:33:52.954Z,6.26
2022-11-28T13:39:34.366Z,6.30
2022-11-28T13:42:59.757Z,6.22
2022-11-28T13:45:28.266Z,6.11
2022-11-28T13:48:00.856Z,6.03
2022-11-28T13:50:31.551Z,6.07
2022-11-28T13:53:01.499Z,6.08
2022-11-28T13:55:47.298Z,5.99
2022-11-28T13:58:23.112Z,6.04
2022-11-28T14:01:11.117Z,5.99
2022-11-28T14:03:48.597Z,6.01
2022-11-28T14:06:20.783Z,6.01
2022-11-28T14:08:50.505Z,5.85
2022-11-28T14:11:27.647Z,5.87
2022-11-28T14:14:20.797Z,5.91
2022-11-28T14:17:14.771Z,5.83
2022-11-28T14:19:56.490Z,5.82
2022-11-28T14:22:45.925Z,5.86
2022-11-28T14:25:25.549Z,5.87
2022-11-28T14:27:57.164Z,5.83
2022-11-28T14:30:36.208Z,5.84
2022-11-28T14:33:32.146Z,5.76
2022-11-28T14:36:23.962Z,5.82
2022-11-28T14:39:35.702Z,5.71
2022-11-28T14:42:06.596Z,5.68
2022-11-28T14:45:06.531Z,5.61
2022-11-28T14:47:39.633Z,5.48
2022-11-28T14:50:08.875Z,5.55
2022-11-28T14:52:46.429Z,5.37
2022-11-28T14:55:14.146Z,5.49
2022-11-28T14:57:54.143Z,5.49
2022-11-28T15:00:28.835Z,5.51
2022-11-28T15:03:04.376Z,5.46
2022-11-28T15:05:42.448Z,5.41
2022-11-28T15:08:25.131Z,5.37
2022-11-28T15:11:09.628Z,5.37
2022-11-28T15:14:05.695Z,5.30
2022-11-28T15:16:35.443Z,5.35
2022-11-28T15:19:31.900Z,5.32
2022-11-28T15:22:01.588Z,5.26
2022-11-28T15:24:35.386Z,5.01
2022-11-28T15:27:09.263Z,5.06
2022-11-28T15:29:37.672Z,5.18
2022-11-28T15:32:06.436Z,5.07
2022-11-28T15:34:37.266Z,5.15
2022-11-28T15:37:17.651Z,5.12
2022-11-28T15:39:50.814Z,5.18
2022-11-28T15:42:25.257Z,5.04
2022-11-28T15:45:13.148Z,5.01
2022-11-28T15:47:41.412Z,5.04
2022-11-28T15:50:12.254Z,5.06
2022-11-28T15:52:39.919Z,4.69
2022-11-28T15:55:17.693Z,5.01
2022-11-28T15:57:46.504Z,4.95
2022-11-28T16:00:18.788Z,4.98
2022-11-28T16:02:47.912Z,4.94
2022-11-28T16:05:21.051Z,4.90
2022-11-28T16:07:52.146Z,4.87
2022-11-28T16:10:30.849Z,4.82
2022-11-28T16:13:12.708Z,4.87
2022-11-28T16:15:40.625Z,4.87
2022-11-28T16:18:08.375Z,4.85
2022-11-28T16:20:38.190Z,4.79
2022-11-28T16:23:19.484Z,4.81
2022-11-28T16:25:48.020Z,4.74
2022-11-28T16:28:32.280Z,4.75
2022-11-28T16:30:59.989Z,4.57
2022-11-28T16:33:40.645Z,4.69
2022-11-28T16:36:17.211Z,4.71
2022-11-28T16:38:47.155Z,4.62
2022-11-28T16:41:27.401Z,4.62
2022-11-28T16:44:02.065Z,4.51
2022-11-28T16:46:35.896Z,4.54
2022-11-28T16:49:07.078Z,4.55
2022-11-28T16:51:37.622Z,4.46
2022-11-28T16:54:29.957Z,4.53
2022-11-28T16:57:08.906Z,4.44
2022-11-28T16:59:36.563Z,4.44
2022-11-28T17:02:04.983Z,4.37
2022-11-28T17:04:32.920Z,4.44
2022-11-28T17:07:05.194Z,4.56
2022-11-28T17:09:33.877Z,4.48
2022-11-28T17:12:13.182Z,4.52
2022-11-28T17:14:41.330Z,4.48
2022-11-28T17:17:19.951Z,4.32
2022-11-28T17:19:47.759Z,4.48
2022-11-28T17:22:18.767Z,4.51
2022-11-28T17:24:47.795Z,4.36
2022-11-28T17:27:16.464Z,4.25
2022-11-28T17:29:44.600Z,4.25
2022-11-28T17:32:16.017Z,4.16
2022-11-28T17:34:44.001Z,4.34
2022-11-28T17:37:11.903Z,4.26
2022-11-28T17:39:39.939Z,4.23
2022-11-28T17:42:08.111Z,4.31
2022-11-28T17:44:37.654Z,4.18
2022-11-28T17:47:06.112Z,4.23
2022-11-28T17:49:35.061Z,4.15
2022-11-28T17:52:02.958Z,4.08
2022-11-28T17:54:30.744Z,3.94
2022-11-28T17:56:58.766Z,3.92
2022-11-28T17:59:27.428Z,3.91
2022-11-28T18:01:55.460Z,3.94
2022-11-28T18:04:25.168Z,4.17
2022-11-28T18:06:53.369Z,4.31
2022-11-28T18:09:21.345Z,4.33
2022-11-28T18:11:49.077Z,4.24
2022-11-28T18:14:19.587Z,4.29
2022-11-28T18:16:48.120Z,4.27
2022-11-28T18:19:15.893Z,4.30
2022-11-28T18:21:43.714Z,4.32
2022-11-28T18:24:11.476Z,4.32
2022-11-28T18:26:40.004Z,4.38
2022-11-28T18:29:08.766Z,4.39
2022-11-28T18:31:36.994Z,4.30
2022-11-28T18:34:08.144Z,4.28
2022-11-28T18:36:37.428Z,4.41
2022-11-28T18:39:09.849Z,4.44
2022-11-28T18:41:37.622Z,4.43
2022-11-28T18:44:06.767Z,4.29
2022-11-28T18:46:35.817Z,4.44
2022-11-28T18:49:03.994Z,4.32
2022-11-28T18:51:35.078Z,4.42
2022-11-28T18:54:05.835Z,4.44
2022-11-28T18:56:35.187Z,4.40
2022-11-28T18:59:03.075Z,4.39
2022-11-28T19:01:33.904Z,4.45
2022-11-28T19:04:07.567Z,4.50
2022-11-28T19:06:36.870Z,4.48
2022-11-28T19:09:07.988Z,4.43
2022-11-28T19:11:36.752Z,4.39
2022-11-28T19:14:04.812Z,4.50
2022-11-28T19:16:35.134Z,4.42
2022-11-28T19:19:04.949Z,4.36
2022-11-28T19:21:36.607Z,4.47
2022-11-28T19:24:05.158Z,4.40
2022-11-28T19:26:34.343Z,4.40
2022-11-28T19:29:03.421Z,4.31
2022-11-28T19:31:33.460Z,4.50
2022-11-28T19:34:04.326Z,4.42
2022-11-28T19:36:41.123Z,4.43
2022-11-28T19:39:14.221Z,4.38
2022-11-28T19:41:41.949Z,4.37
2022-11-28T19:44:11.983Z,4.42
2022-11-28T19:46:40.258Z,3.89
2022-11-28T19:49:15.025Z,4.33
2022-11-28T19:51:42.915Z,4.37
2022-11-28T19:54:10.729Z,4.40
2022-11-28T19:56:38.513Z,4.36
2022-11-28T19:59:06.657Z,4.40
2022-11-28T20:01:35.396Z,4.39
2022-11-28T20:04:03.234Z,4.37
2022-11-28T20:06:32.638Z,4.33
2022-11-28T20:09:03.545Z,4.29
2022-11-28T20:11:34.233Z,4.29
2022-11-28T20:14:05.015Z,4.28
2022-11-28T20:16:34.661Z,4.31
2022-11-28T20:19:04.088Z,4.28
2022-11-28T20:21:33.040Z,4.36
2022-11-28T20:24:04.729Z,4.24
2022-11-28T20:26:40.551Z,4.30
2022-11-28T20:29:10.633Z,4.36
2022-11-28T20:31:45.197Z,4.35
2022-11-28T20:34:17.925Z,4.39
2022-11-28T20:36:47.075Z,4.35
2022-11-28T20:39:15.094Z,4.32
2022-11-28T20:41:42.843Z,4.25
2022-11-28T20:44:11.475Z,4.31
2022-11-28T20:46:39.925Z,4.32
2022-11-28T20:49:08.420Z,4.10
2022-11-28T20:51:37.010Z,4.26
2022-11-28T20:54:07.253Z,4.26
2022-11-28T20:57:05.135Z,4.21
2022-11-28T20:59:27.038Z,4.07
2022-11-28T21:01:54.846Z,4.12
2022-11-28T21:04:22.597Z,4.14
2022-11-28T21:06:50.288Z,4.16
2022-11-28T21:09:20.571Z,4.27
2022-11-28T21:11:58.509Z,4.09
2022-11-28T21:14:27.721Z,4.10
2022-11-28T21:16:55.600Z,4.11
2022-11-28T21:19:23.461Z,4.19
2022-11-28T21:21:51.283Z,4.04
2022-11-28T21:24:18.989Z,4.03
2022-11-28T21:26:52.975Z,4.14
2022-11-28T21:29:21.469Z,4.17
2022-11-28T21:31:49.268Z,4.10
2022-11-28T21:34:17.726Z,3.91
2022-11-28T21:36:45.933Z,3.97
2022-11-28T21:39:19.959Z,3.92
2022-11-28T21:41:48.128Z,4.00
2022-11-28T21:44:15.839Z,4.02
2022-11-28T21:46:43.640Z,3.95
2022-11-28T21:49:12.525Z,3.73
2022-11-28T21:51:40.864Z,3.85
2022-11-28T21:54:10.159Z,3.60
2022-11-28T21:56:38.194Z,3.95
2022-11-28T21:59:06.088Z,3.94
2022-11-28T22:01:39.450Z,3.83
2022-11-28T22:04:07.727Z,3.93
2022-11-28T22:06:35.645Z,4.05
2022-11-28T22:09:08.971Z,4.12
2022-11-28T22:11:37.259Z,4.07
2022-11-28T22:14:05.071Z,4.01
2022-11-28T22:16:33.452Z,3.88
2022-11-28T22:19:01.680Z,3.84
2022-11-28T22:24:18.470Z,3.87
2022-11-28T22:26:46.273Z,3.83
2022-11-28T22:29:14.529Z,4.02
2022-11-28T22:31:42.413Z,3.94
2022-11-28T22:34:10.779Z,3.94
2022-11-28T22:36:39.176Z,3.75
2022-11-28T22:39:07.321Z,3.88
2022-11-28T22:41:35.204Z,3.86
2022-11-28T22:44:04.047Z,3.88
2022-11-28T22:46:32.575Z,3.89
2022-11-28T22:49:01.782Z,4.01
2022-11-28T22:51:31.259Z,3.93
2022-11-28T22:54:02.061Z,3.90
2022-11-28T22:56:32.501Z,3.92
2022-11-28T22:59:01.666Z,3.98
2022-11-28T23:01:32.029Z,3.94
2022-11-28T23:04:01.009Z,3.85
2022-11-28T23:06:33.789Z,3.83
2022-11-28T23:09:04.436Z,3.90
2022-11-28T23:11:34.551Z,3.90
2022-11-28T23:14:03.555Z,3.79
2022-11-28T23:16:39.344Z,3.87
2022-11-28T23:19:13.542Z,3.88
2022-11-28T23:21:44.208Z,3.78
2022-11-28T23:24:17.114Z,3.83
2022-11-28T23:26:46.515Z,3.85
2022-11-28T23:29:15.294Z,3.94
2022-11-28T23:31:44.331Z,3.94
2022-11-28T23:34:12.705Z,3.61
2022-11-28T23:36:43.187Z,3.78
2022-11-28T23:39:17.361Z,3.77
2022-11-28T23:41:46.200Z,3.82
2022-11-28T23:44:15.838Z,3.80
2022-11-28T23:46:44.835Z,3.73
2022-11-28T23:49:13.010Z,3.84
2022-11-28T23:51:41.435Z,3.96
2022-11-28T23:54:10.859Z,3.94
2022-11-28T23:56:40.525Z,3.83
2022-11-28T23:59:09.931Z,3.67
